createdAt,value
2022-12-03T00:00:00.444Z,15.02
2022-12-03T00:05:02.613Z,15.23
2022-12-03T00:10:05.320Z,16.13
2022-12-03T00:15:08.116Z,15.55
2022-12-03T00:20:10.610Z,16.80
2022-12-03T00:25:12.700Z,19.90
2022-12-03T00:30:14.863Z,20.95
2022-12-03T00:35:17.096Z,17.98
2022-12-03T00:40:19.220Z,18.02
2022-12-03T00:45:21.438Z,19.00
2022-12-03T00:50:23.589Z,20.15
2022-12-03T00:55:25.691Z,18.35
2022-12-03T01:00:27.986Z,21.45
2022-12-03T01:05:29.926Z,16.85
2022-12-03T01:10:32.132Z,23.10
2022-12-03T01:15:34.109Z,18.90
2022-12-03T01:20:36.522Z,16.70
2022-12-03T01:25:38.696Z,19.83
2022-12-03T01:31:00.878Z,17.35
2022-12-03T01:41:10.080Z,24.23
2022-12-03T01:46:25.223Z,23.30
2022-12-03T01:51:27.507Z,25.77
2022-12-03T01:56:29.716Z,23.23
2022-12-03T02:01:31.861Z,22.17
2022-12-03T02:06:34.496Z,21.90
2022-12-03T02:11:39.848Z,20.67
2022-12-03T02:16:42.793Z,23.65
2022-12-03T02:21:55.725Z,23.10
2022-12-03T02:26:57.921Z,26.30
2022-12-03T02:32:00.193Z,28.42
2022-12-03T02:37:04.339Z,26.52
2022-12-03T02:42:25.249Z,39.08
2022-12-03T02:47:27.474Z,29.05
2022-12-03T02:52:29.754Z,32.22
2022-12-03T02:57:32.187Z,29.60
2022-12-03T03:02:34.755Z,27.55
2022-12-03T03:07:37.530Z,28.90
2022-12-03T03:12:39.736Z,35.78
2022-12-03T03:17:42.347Z,31.83
2022-12-03T03:22:44.532Z,33.80
2022-12-03T03:27:46.613Z,35.95
2022-12-03T03:32:48.760Z,41.10
2022-12-03T03:37:50.934Z,37.03
2022-12-03T03:42:53.258Z,45.28
2022-12-03T03:47:55.457Z,40.67
2022-12-03T03:52:58.705Z,42.25
2022-12-03T03:58:00.973Z,33.00
2022-12-03T04:03:04.562Z,45.05
2022-12-03T04:08:06.886Z,39.10
2022-12-03T04:13:08.714Z,42.97
2022-12-03T04:18:29.078Z,45.65
2022-12-03T04:23:31.272Z,39.63
2022-12-03T04:28:51.675Z,40.60
2022-12-03T04:34:12.272Z,43.53
2022-12-03T04:39:14.019Z,37.80
2022-12-03T04:44:33.804Z,46.17
2022-12-03T04:49:37.387Z,47.33
2022-12-03T04:54:39.955Z,44.40
2022-12-03T04:59:42.140Z,49.55
2022-12-03T05:04:44.295Z,40.70
2022-12-03T05:09:45.999Z,39.58
2022-12-03T05:14:48.158Z,46.88
2022-12-03T05:20:08.627Z,42.17
2022-12-03T05:25:10.602Z,40.95
2022-12-03T05:30:12.733Z,44.30
2022-12-03T05:35:14.623Z,46.28
2022-12-03T05:40:16.893Z,37.97
2022-12-03T05:45:19.290Z,41.50
2022-12-03T05:50:24.049Z,43.60
2022-12-03T05:55:26.552Z,44.35
2022-12-03T06:00:31.392Z,41.42
2022-12-03T06:05:34.314Z,44.08
2022-12-03T06:10:36.446Z,40.85
2022-12-03T06:15:43.497Z,38.20
2022-12-03T06:20:46.203Z,42.75
2022-12-03T06:25:48.341Z,41.75
2022-12-03T06:30:50.249Z,51.35
2022-12-03T06:35:51.998Z,46.10
2022-12-03T06:40:54.088Z,47.03
2022-12-03T06:45:55.791Z,46.88
2022-12-03T06:50:57.957Z,44.75
2022-12-03T06:56:00.122Z,45.00
2022-12-03T07:01:02.254Z,39.80
2022-12-03T07:06:04.476Z,43.67
2022-12-03T07:11:26.937Z,44.53
2022-12-03T07:16:29.358Z,42.58
2022-12-03T07:21:31.534Z,49.03
2022-12-03T07:26:33.788Z,45.42
2022-12-03T07:31:35.962Z,43.33
2022-12-03T07:36:38.072Z,43.40
2022-12-03T07:41:39.772Z,39.25
2022-12-03T07:46:42.023Z,40.10
2022-12-03T07:51:53.407Z,37.72
2022-12-03T07:57:00.935Z,35.90
2022-12-03T08:02:03.811Z,34.13
2022-12-03T08:07:06.274Z,36.95
2022-12-03T08:12:17.303Z,31.73
2022-12-03T08:17:21.301Z,30.45
2022-12-03T08:22:23.163Z,34.58
2022-12-03T08:27:25.289Z,33.20
2022-12-03T08:32:27.490Z,31.65
2022-12-03T08:37:30.125Z,26.13
2022-12-03T08:42:43.105Z,27.10
2022-12-03T08:47:45.412Z,29.73
2022-12-03T08:52:47.591Z,27.20
2022-12-03T08:57:49.737Z,26.55
2022-12-03T09:02:58.858Z,28.80
2022-12-03T09:08:01.395Z,28.20
2022-12-03T09:13:03.598Z,28.23
2022-12-03T09:18:05.856Z,28.95
2022-12-03T09:23:08.138Z,32.42
2022-12-03T09:28:10.333Z,31.80
2022-12-03T09:33:12.512Z,32.63
2022-12-03T09:38:14.709Z,32.78
2022-12-03T09:43:16.987Z,32.83
2022-12-03T09:48:20.697Z,28.33
2022-12-03T09:53:25.924Z,31.48
2022-12-03T09:58:34.375Z,32.63
2022-12-03T10:03:49.259Z,34.80
2022-12-03T10:08:54.778Z,32.00
2022-12-03T10:13:58.355Z,29.55
2022-12-03T10:19:01.588Z,30.38
2022-12-03T10:24:20.182Z,35.22
2022-12-03T10:29:26.948Z,41.15
2022-12-03T10:34:35.992Z,38.85
2022-12-03T10:39:56.009Z,40.47
2022-12-03T10:45:27.644Z,43.20
2022-12-03T10:50:29.649Z,43.90
2022-12-03T10:55:38.081Z,40.85
2022-12-03T11:00:40.201Z,47.15
2022-12-03T11:05:42.339Z,42.92
2022-12-03T11:10:44.725Z,43.22
2022-12-03T11:15:46.997Z,47.85
2022-12-03T11:20:48.700Z,45.33
2022-12-03T11:25:50.906Z,40.42
2022-12-03T11:30:56.880Z,39.17
2022-12-03T11:36:04.733Z,39.13
2022-12-03T11:41:17.796Z,39.33
2022-12-03T11:46:38.626Z,40.13
2022-12-03T11:51:44.734Z,38.05
2022-12-03T11:56:51.247Z,49.55
2022-12-03T12:01:53.435Z,46.50
2022-12-03T12:06:55.259Z,44.65
2022-12-03T12:12:21.511Z,44.13
2022-12-03T12:17:36.895Z,48.60
2022-12-03T12:22:39.398Z,50.05
2022-12-03T12:27:45.521Z,47.97
2022-12-03T12:32:50.545Z,36.58
2022-12-03T12:37:59.022Z,34.28
2022-12-03T12:43:26.452Z,39.47
2022-12-03T12:48:28.607Z,41.58
2022-12-03T12:53:35.933Z,44.50
2022-12-03T12:58:38.163Z,45.05
2022-12-03T13:03:40.167Z,43.70
2022-12-03T13:08:45.510Z,43.03
2022-12-03T13:13:47.734Z,45.40
2022-12-03T13:18:54.697Z,37.75
2022-12-03T13:23:57.574Z,37.50
2022-12-03T13:29:02.025Z,45.63
2022-12-03T13:34:16.904Z,33.30
2022-12-03T13:39:37.831Z,30.50
2022-12-03T13:44:47.621Z,36.30
2022-12-03T13:49:54.761Z,37.42
2022-12-03T13:54:57.313Z,35.40
2022-12-03T13:59:59.445Z,35.05
2022-12-03T14:05:01.598Z,36.10
2022-12-03T14:10:03.876Z,42.42
2022-12-03T14:15:07.098Z,38.30
2022-12-03T14:20:09.812Z,33.45
2022-12-03T14:25:12.070Z,32.22
2022-12-03T14:30:14.327Z,34.50
2022-12-03T14:35:16.517Z,37.35
2022-12-03T14:40:21.711Z,30.23
2022-12-03T14:45:25.225Z,32.40
2022-12-03T14:50:27.502Z,30.45
2022-12-03T14:55:29.662Z,33.25
2022-12-03T15:00:31.809Z,32.90
2022-12-03T15:05:34.022Z,30.13
2022-12-03T15:10:35.766Z,31.73
2022-12-03T15:15:37.909Z,29.63
2022-12-03T15:20:40.042Z,32.30
2022-12-03T15:25:42.291Z,30.52
2022-12-03T15:30:44.513Z,28.70
2022-12-03T15:35:46.632Z,34.50
2022-12-03T15:40:48.875Z,32.92
2022-12-03T15:45:51.200Z,31.30
2022-12-03T15:50:53.345Z,29.02
2022-12-03T15:55:55.507Z,29.50
2022-12-03T16:00:57.655Z,32.45
2022-12-03T16:06:00.183Z,31.27
2022-12-03T16:11:02.008Z,35.97
2022-12-03T16:16:04.342Z,34.10
2022-12-03T16:21:06.224Z,30.88
2022-12-03T16:26:08.379Z,34.83
2022-12-03T16:31:10.630Z,32.45
2022-12-03T16:36:12.870Z,33.40
2022-12-03T17:35:40.357Z,40.92
2022-12-03T17:40:42.066Z,38.92
2022-12-03T17:45:44.307Z,35.95
2022-12-03T17:50:46.047Z,39.65
2022-12-03T17:55:47.799Z,37.35
2022-12-03T18:00:49.610Z,34.22
2022-12-03T18:05:51.446Z,36.95
2022-12-03T18:10:53.217Z,32.60
2022-12-03T18:15:55.515Z,34.38
2022-12-03T18:21:02.017Z,37.38
2022-12-03T18:26:04.662Z,34.85
2022-12-03T18:31:14.596Z,29.67
2022-12-03T18:36:25.177Z,33.28
2022-12-03T18:41:27.454Z,34.93
2022-12-03T18:46:52.493Z,32.50
2022-12-03T18:51:57.334Z,30.15
2022-12-03T18:57:01.389Z,35.13
2022-12-03T19:02:03.710Z,34.33
2022-12-03T19:07:05.956Z,38.97
2022-12-03T19:12:14.435Z,34.38
2022-12-03T19:17:16.724Z,29.92
2022-12-03T19:22:18.984Z,29.45
2022-12-03T19:27:20.757Z,28.92
2022-12-03T19:32:22.628Z,28.88
2022-12-03T19:37:24.432Z,30.67
2022-12-03T19:42:26.974Z,27.10
2022-12-03T19:47:28.839Z,33.50
2022-12-03T19:52:30.687Z,29.00
2022-12-03T19:57:32.863Z,34.80
2022-12-03T20:02:34.665Z,32.78
2022-12-03T20:07:36.449Z,33.35
2022-12-03T20:12:38.235Z,32.47
2022-12-03T20:17:40.168Z,30.63
2022-12-03T20:22:42.338Z,31.00
2022-12-03T20:27:44.502Z,30.55
2022-12-03T20:32:46.233Z,35.00
2022-12-03T20:37:48.032Z,34.53
2022-12-03T20:42:49.847Z,38.60
2022-12-03T20:47:51.613Z,37.20
2022-12-03T20:53:16.665Z,36.40
2022-12-03T20:58:15.127Z,40.47
2022-12-03T21:03:17.380Z,32.78
2022-12-03T21:08:39.255Z,33.10
2022-12-03T21:13:42.574Z,33.92
2022-12-03T21:18:45.278Z,27.33
2022-12-03T21:23:47.770Z,33.88
2022-12-03T21:28:51.572Z,27.38
2022-12-03T21:33:55.289Z,29.42
2022-12-03T21:38:57.053Z,28.70
2022-12-03T21:43:58.984Z,31.42
2022-12-03T21:49:01.115Z,33.33
2022-12-03T21:54:03.266Z,29.27
2022-12-03T21:59:05.029Z,28.80
2022-12-03T22:04:06.753Z,27.15
2022-12-03T22:09:08.554Z,26.52
2022-12-03T22:14:10.629Z,36.15
2022-12-03T22:19:12.415Z,29.52
2022-12-03T22:24:14.163Z,27.75
2022-12-03T22:29:16.037Z,26.67
2022-12-03T22:34:18.280Z,31.27
2022-12-03T22:39:20.035Z,24.15
2022-12-03T22:44:21.788Z,34.10
2022-12-03T22:49:23.890Z,26.33
2022-12-03T22:54:25.620Z,30.42
2022-12-03T22:59:27.381Z,31.15
2022-12-03T23:04:29.178Z,22.35
2022-12-03T23:09:31.335Z,26.77
2022-12-03T23:14:33.112Z,24.90
2022-12-03T23:19:35.546Z,26.25
2022-12-03T23:24:37.725Z,26.20
2022-12-03T23:29:39.510Z,24.85
2022-12-03T23:34:41.356Z,24.17
2022-12-03T23:39:43.175Z,24.38
2022-12-03T23:44:45.358Z,27.27
2022-12-03T23:49:47.525Z,22.08
2022-12-03T23:54:49.252Z,27.83
2022-12-03T23:59:50.950Z,26.42
